LFRG/DOL METAR and TAF weather

Enter ICAO airport designator
Station Type Date Time Source
LFRG METAR 2018/12/12 11:30 UTC NOAA

LFRG 121130Z AUTO 13009KT 100V190 CAVOK 04/00 Q1021 NOSIG


Station Type Date Time Source
LFRG Decoded METAR 2018/12/12 11:30 UTC NOAA

Station name not available
Dec 12, 2018 - 06:30 AM EST / 2018.12.12 1130 UTC
Wind: from the SE (130 degrees) at 10 MPH (9 KT) (direction variable):0
Visibility: greater than 7 mile(s):0
Temperature: 39 F (4 C)
Dew Point: 32 F (0 C)
Relative Humidity: 75%
Pressure (altimeter): 30.15 in. Hg (1021 hPa)
ob: LFRG 121130Z AUTO 13009KT 100V190 CAVOK 04/00 Q1021 NOSIG
cycle: 11

Station Type Date Time Source
LFRG TAF 2014/12/22 18:42 UTC NOAA

TAF
AMD TAF
AMD LFRG 221837Z 2218/2221 25015KT 9999 OVC015
TEMPO 2218/2221 BKN007 PROB30
TEMPO 2218/2221 25015G25KT 4000 DZ BKN003


Example: see airport list